Terminal Aerodrome Forecast
Issued by NWS Wilmington, OH

Current Version | Previous Version | Graphics & Text | Print | Product List | Glossary On
Versions: 1 2 3 4 5 6 7 8 9 10 11 12 13 14 15 16 17 18 19 20 21 22 23 24 25
000
FTUS41 KILN 260222 AAA
TAFCVG
TAF AMD
KCVG 260222Z 2602/2706 17006KT P6SM SCT250
     FM260700 17006KT P6SM BKN250
     FM261500 17012G18KT P6SM SCT250
     FM270200 16010KT P6SM SCT200 WS020/18035KT=

USA.gov is the U.S. government's official web portal to all federal, state and local government web resources and services.